DUH weather

Toledo Suburban Airport
Lambertville, Michigan, United States

Public forecast

Using degrees Fahrenheit for public forecast. Weather courtesy of forecast.io.

METAR (pilot weather report)

Retrieved 2019/05/27 07:35 UTC (0 seconds ago):

KDUH 270735Z AUTO 00000KT 1/4SM FG OVC001 11/11 A3007 RMK AO2 T01100108

TAF (pilot weather forecast)

Closest forecast is Toledo Express Airport, 11.3 nm (20.9 km) SW. Retrieved 2019/05/27 06:42 UTC (40 minutes ago):

TAF KTOL 270540Z 2706/2806 00000KT P6SM SKC TEMPO 2706/2708 3/4SM BR VV004 FM270800 00000KT P6SM SCT250 FM272100 09008KT P6SM BKN100 FM280200 10009KT 5SM -SHRA VCTS OVC035CB